Time;durP1;ratioP1;P1;durP2;ratioP2;P2;SDS_P1;SDS_P2;PMS_P1;PMS_P2;Temp;Humidity;BMP_temperature;BMP_pressure;BME280_temperature;BME280_humidity;BME280_pressure;Samples;Min_cycle;Max_cycle;Signal;HPM_P1;HPM_P2
2023/12/12 00:02:17;;;;;;;13.60;5.47;;;6.90;99.90;;;;;;4953970;29;20047;-83
2023/12/12 00:04:44;;;;;;;12.45;5.95;;;6.90;99.90;;;;;;4953992;29;20048;-83
2023/12/12 00:07:11;;;;;;;15.55;5.63;;;7.10;99.90;;;;;;4954258;29;20041;-83
2023/12/12 00:09:37;;;;;;;14.60;5.95;;;6.30;99.90;;;;;;4949853;29;20048;-83
2023/12/12 00:12:04;;;;;;;15.02;5.22;;;7.20;99.90;;;;;;4949877;29;20039;-83
2023/12/12 00:14:31;;;;;;;13.75;5.07;;;6.30;99.90;;;;;;4953860;29;20036;-83
2023/12/12 00:16:58;;;;;;;8.02;4.10;;;6.30;99.90;;;;;;4953654;29;20039;-84
2023/12/12 00:19:24;;;;;;;9.95;4.78;;;6.30;99.90;;;;;;4966682;29;20088;-84
2023/12/12 00:21:51;;;;;;;17.02;5.35;;;6.30;99.90;;;;;;4938912;29;20485;-83
2023/12/12 00:24:17;;;;;;;12.38;6.60;;;7.00;99.90;;;;;;4948490;29;20165;-83
2023/12/12 00:26:44;;;;;;;15.07;6.57;;;6.30;99.90;;;;;;4953899;29;20074;-83
2023/12/12 00:29:10;;;;;;;15.30;6.28;;;6.30;99.90;;;;;;4940763;29;20082;-83
2023/12/12 00:31:37;;;;;;;15.18;6.18;;;6.30;99.90;;;;;;4948197;29;20039;-83
2023/12/12 00:34:04;;;;;;;12.02;6.40;;;6.30;99.90;;;;;;4950838;29;20535;-83
2023/12/12 00:36:30;;;;;;;13.38;6.03;;;6.50;99.90;;;;;;4958109;29;20031;-83
2023/12/12 00:38:57;;;;;;;15.45;6.07;;;6.20;99.90;;;;;;4950263;29;20040;-83
2023/12/12 00:41:34;;;;;;;14.38;5.63;;;6.20;99.90;;;;;;4953311;29;20126;-83
2023/12/12 00:44:00;;;;;;;11.40;5.90;;;6.70;99.90;;;;;;4948832;29;20095;-83
2023/12/12 00:46:27;;;;;;;16.98;6.65;;;6.30;99.90;;;;;;4950066;29;20040;-84
2023/12/12 00:48:54;;;;;;;12.15;6.00;;;6.00;99.90;;;;;;4950061;29;20130;-83
2023/12/12 00:51:20;;;;;;;16.40;6.85;;;6.00;99.90;;;;;;4958851;29;20078;-83
2023/12/12 00:53:47;;;;;;;19.42;8.15;;;5.90;99.90;;;;;;4953190;29;20079;-83
2023/12/12 00:56:13;;;;;;;17.00;7.93;;;5.90;99.90;;;;;;4953306;29;20563;-83
2023/12/12 00:58:40;;;;;;;20.75;9.98;;;5.90;99.90;;;;;;4952731;29;20134;-83
2023/12/12 01:01:07;;;;;;;15.90;8.85;;;5.80;99.90;;;;;;4940247;29;20140;-83
2023/12/12 01:03:33;;;;;;;19.60;10.00;;;5.80;99.90;;;;;;4956282;29;20130;-83
2023/12/12 01:06:00;;;;;;;22.08;9.85;;;5.70;99.90;;;;;;4945461;29;20047;-83
2023/12/12 01:08:27;;;;;;;19.13;9.73;;;5.70;99.90;;;;;;4956722;29;20119;-83
2023/12/12 01:10:53;;;;;;;17.35;9.43;;;5.60;99.90;;;;;;4953107;29;20611;-83
2023/12/12 01:13:20;;;;;;;13.85;8.90;;;5.50;99.90;;;;;;4940295;29;20070;-83
2023/12/12 01:15:47;;;;;;;22.70;10.00;;;5.50;99.90;;;;;;4941053;29;20051;-83
2023/12/12 01:18:13;;;;;;;21.45;9.05;;;5.50;99.90;;;;;;4945124;29;20044;-84
2023/12/12 01:20:40;;;;;;;18.25;9.27;;;5.30;99.90;;;;;;4933879;29;20040;-84
2023/12/12 01:23:06;;;;;;;18.48;9.73;;;5.80;99.90;;;;;;4950214;29;20043;-83
2023/12/12 01:25:33;;;;;;;21.42;9.48;;;6.20;99.90;;;;;;4960861;29;20040;-84
2023/12/12 01:28:00;;;;;;;19.15;9.27;;;5.30;99.90;;;;;;4950756;29;20043;-83
2023/12/12 01:30:26;;;;;;;16.38;8.82;;;5.50;99.90;;;;;;4940632;29;20040;-84
2023/12/12 01:32:53;;;;;;;17.58;9.00;;;5.10;99.90;;;;;;4946286;29;20131;-83
2023/12/12 01:35:20;;;;;;;20.90;7.75;;;5.40;99.90;;;;;;4959320;29;20047;-83
2023/12/12 01:37:46;;;;;;;15.00;7.28;;;5.50;99.90;;;;;;4940180;29;20047;-84
2023/12/12 01:40:13;;;;;;;17.40;7.53;;;5.00;99.90;;;;;;4940206;29;20400;-83
2023/12/12 01:42:40;;;;;;;15.32;7.30;;;5.00;99.90;;;;;;4952800;29;20121;-83
2023/12/12 01:45:07;;;;;;;19.45;6.75;;;4.90;99.90;;;;;;4939983;29;20099;-83
2023/12/12 01:47:34;;;;;;;15.07;6.57;;;4.90;99.90;;;;;;4947669;29;20123;-84
2023/12/12 01:50:01;;;;;;;15.57;6.55;;;5.00;99.90;;;;;;4951352;29;20044;-84
2023/12/12 01:52:28;;;;;;;14.85;5.93;;;4.80;99.90;;;;;;4941375;29;20036;-83
2023/12/12 01:54:55;;;;;;;15.65;5.95;;;4.70;99.90;;;;;;4952265;29;20044;-83
2023/12/12 01:57:22;;;;;;;12.65;6.53;;;4.70;99.90;;;;;;4952520;29;20031;-83
2023/12/12 01:59:49;;;;;;;12.38;6.25;;;4.70;99.90;;;;;;4949445;29;20058;-83
2023/12/12 02:02:19;;;;;;;10.25;6.03;;;4.60;99.90;;;;;;4942649;29;20130;-84
2023/12/12 02:04:48;;;;;;;13.95;4.65;;;4.50;99.90;;;;;;4940447;29;20047;-84
2023/12/12 02:07:15;;;;;;;8.13;3.88;;;5.10;99.90;;;;;;4952413;29;20111;-83
2023/12/12 02:09:43;;;;;;;7.95;3.40;;;4.50;99.90;;;;;;4957119;29;20074;-84
2023/12/12 02:12:09;;;;;;;13.52;3.10;;;4.50;99.90;;;;;;4947522;29;20120;-83
2023/12/12 02:14:37;;;;;;;5.18;2.22;;;4.40;99.90;;;;;;4964135;29;20123;-83
2023/12/12 02:17:04;;;;;;;7.03;2.15;;;4.40;99.90;;;;;;4951851;29;20035;-83
2023/12/12 02:19:31;;;;;;;5.70;2.10;;;5.20;99.90;;;;;;4952567;29;20043;-83
2023/12/12 02:21:57;;;;;;;9.10;2.30;;;4.90;99.90;;;;;;4954940;29;20047;-83
2023/12/12 02:24:24;;;;;;;4.70;1.83;;;4.40;99.90;;;;;;4943468;29;20043;-84
2023/12/12 02:26:51;;;;;;;8.60;1.65;;;4.50;99.90;;;;;;4955420;29;20043;-84
2023/12/12 02:29:18;;;;;;;6.22;1.90;;;4.40;99.90;;;;;;4971107;29;20039;-84
2023/12/12 02:31:44;;;;;;;7.32;1.60;;;4.70;99.90;;;;;;4955735;29;20484;-83
2023/12/12 02:34:11;;;;;;;6.63;1.80;;;4.50;99.90;;;;;;4951580;29;20563;-83
2023/12/12 02:36:37;;;;;;;6.47;1.50;;;4.50;99.90;;;;;;4945692;29;20036;-83
2023/12/12 02:39:04;;;;;;;10.90;2.22;;;4.30;99.90;;;;;;4953057;29;20048;-83
2023/12/12 02:41:31;;;;;;;5.05;1.58;;;4.70;99.90;;;;;;4955463;29;20071;-83
2023/12/12 02:43:57;;;;;;;5.82;1.80;;;4.40;99.90;;;;;;4971114;29;20042;-83
2023/12/12 02:46:24;;;;;;;5.53;1.67;;;4.30;99.90;;;;;;4955388;29;20559;-83
2023/12/12 02:48:50;;;;;;;4.38;1.33;;;4.30;99.90;;;;;;4943000;29;20160;-83
2023/12/12 02:51:17;;;;;;;5.13;1.52;;;4.70;99.90;;;;;;4943882;29;20112;-83
2023/12/12 02:53:44;;;;;;;5.68;1.40;;;4.30;99.90;;;;;;4955255;29;20039;-83
2023/12/12 02:56:10;;;;;;;7.53;1.67;;;4.30;99.90;;;;;;4964747;29;20036;-83
2023/12/12 02:58:37;;;;;;;7.35;1.80;;;4.70;99.90;;;;;;4942411;29;20047;-84
2023/12/12 03:01:04;;;;;;;8.20;1.70;;;4.40;99.90;;;;;;4954884;29;20094;-83
2023/12/12 03:03:30;;;;;;;3.55;1.42;;;4.40;99.90;;;;;;4955026;29;20044;-83
2023/12/12 03:05:57;;;;;;;6.50;1.60;;;4.50;99.90;;;;;;4955088;29;20046;-83
2023/12/12 03:08:24;;;;;;;5.15;1.60;;;4.50;99.90;;;;;;4939185;29;20043;-83
2023/12/12 03:10:50;;;;;;;4.60;1.70;;;4.50;99.90;;;;;;4955452;29;20054;-83
2023/12/12 03:13:17;;;;;;;8.52;1.90;;;4.50;99.90;;;;;;4953450;29;20044;-83
2023/12/12 03:15:43;;;;;;;5.60;1.85;;;4.50;99.90;;;;;;4959225;29;20040;-83
2023/12/12 03:18:10;;;;;;;9.30;2.00;;;4.60;99.90;;;;;;4949989;29;20040;-83
2023/12/12 03:20:37;;;;;;;15.15;2.10;;;5.20;99.90;;;;;;4946219;29;20404;-83
2023/12/12 03:23:03;;;;;;;7.72;2.00;;;5.40;99.90;;;;;;4942293;29;20209;-83
2023/12/12 03:25:30;;;;;;;5.75;1.60;;;5.60;99.90;;;;;;4954734;29;20051;-83
2023/12/12 03:27:56;;;;;;;4.93;1.75;;;4.60;99.90;;;;;;4954509;29;20039;-83
2023/12/12 03:30:23;;;;;;;8.40;2.28;;;4.70;99.90;;;;;;4954714;29;20047;-83
2023/12/12 03:32:50;;;;;;;8.23;2.08;;;4.70;99.90;;;;;;4954213;29;20032;-83
2023/12/12 03:35:16;;;;;;;10.23;1.63;;;4.70;99.90;;;;;;4958576;29;20044;-83
2023/12/12 03:37:44;;;;;;;6.50;1.90;;;4.70;99.90;;;;;;4951002;29;20584;-83
2023/12/12 03:40:11;;;;;;;4.15;1.50;;;4.70;99.90;;;;;;4954225;29;20048;-83
2023/12/12 03:42:37;;;;;;;8.02;2.13;;;4.70;99.90;;;;;;4954255;29;20043;-84
2023/12/12 03:45:06;;;;;;;11.73;1.50;;;4.70;99.90;;;;;;4954250;29;20523;-83
2023/12/12 03:47:32;;;;;;;6.82;1.77;;;4.70;99.90;;;;;;4954449;29;20043;-84
2023/12/12 03:49:59;;;;;;;6.18;1.70;;;4.80;99.90;;;;;;4954121;29;20035;-83
2023/12/12 03:52:26;;;;;;;5.45;1.50;;;4.70;99.90;;;;;;4949462;29;20032;-84
2023/12/12 03:54:52;;;;;;;5.10;1.58;;;4.70;99.90;;;;;;4953945;29;20046;-84
2023/12/12 03:57:19;;;;;;;10.45;1.92;;;4.70;99.90;;;;;;4954394;29;20043;-84
2023/12/12 03:59:46;;;;;;;5.90;1.75;;;4.70;99.90;;;;;;4953739;29;20044;-84
2023/12/12 04:02:12;;;;;;;9.40;1.60;;;5.50;99.90;;;;;;4947729;29;20500;-84
2023/12/12 04:04:39;;;;;;;9.02;1.52;;;4.60;99.90;;;;;;4957133;29;20053;-84
2023/12/12 04:07:05;;;;;;;8.18;1.60;;;4.60;99.90;;;;;;4953641;29;20519;-84
2023/12/12 04:09:32;;;;;;;6.05;1.73;;;5.30;99.90;;;;;;4953597;29;20043;-84
2023/12/12 04:11:59;;;;;;;5.13;1.70;;;5.00;99.90;;;;;;4948340;29;20492;-84
2023/12/12 04:14:25;;;;;;;10.18;1.70;;;4.50;99.90;;;;;;4951962;29;20046;-84
2023/12/12 04:16:52;;;;;;;5.55;1.55;;;5.50;99.90;;;;;;4956789;29;20063;-84
2023/12/12 04:19:19;;;;;;;7.00;1.55;;;4.40;99.90;;;;;;4941246;29;20099;-83
2023/12/12 04:21:45;;;;;;;8.77;1.75;;;4.60;99.90;;;;;;4953451;29;20087;-84
2023/12/12 04:24:12;;;;;;;4.93;1.85;;;4.80;99.90;;;;;;4953505;29;20047;-84
2023/12/12 04:26:38;;;;;;;5.03;1.80;;;4.20;99.90;;;;;;4969172;29;20405;-84
2023/12/12 04:29:05;;;;;;;6.03;1.48;;;4.20;99.90;;;;;;4948505;29;20039;-84
2023/12/12 04:31:32;;;;;;;5.50;1.50;;;4.50;99.90;;;;;;4945969;29;20756;-84
2023/12/12 04:33:58;;;;;;;7.13;1.52;;;4.10;99.90;;;;;;4945099;29;20048;-84
2023/12/12 04:36:25;;;;;;;5.30;1.60;;;4.00;99.90;;;;;;4942324;29;20484;-83
2023/12/12 04:38:52;;;;;;;6.10;1.90;;;4.00;99.90;;;;;;4954818;29;20043;-84
2023/12/12 04:41:18;;;;;;;5.68;1.52;;;4.40;99.90;;;;;;4953129;29;20042;-84
2023/12/12 04:43:45;;;;;;;6.68;1.67;;;4.00;99.90;;;;;;4950458;29;20039;-84
2023/12/12 04:46:21;;;;;;;6.75;1.70;;;4.00;99.90;;;;;;4939992;29;20611;-84
2023/12/12 04:48:47;;;;;;;6.72;1.80;;;4.00;99.90;;;;;;4946880;29;20126;-84
2023/12/12 04:51:14;;;;;;;5.85;1.50;;;4.00;99.90;;;;;;4960471;29;20076;-84
2023/12/12 04:53:41;;;;;;;7.07;1.90;;;4.50;99.90;;;;;;4948484;29;20531;-83
2023/12/12 04:56:08;;;;;;;8.55;1.88;;;4.00;99.90;;;;;;4944918;29;20036;-84
2023/12/12 04:58:35;;;;;;;7.05;1.60;;;4.00;99.90;;;;;;4941069;29;20052;-84
2023/12/12 05:01:01;;;;;;;6.60;1.80;;;5.00;99.90;;;;;;4958157;29;20556;-84
2023/12/12 05:03:28;;;;;;;5.75;1.65;;;5.20;99.90;;;;;;4963524;29;20524;-83
2023/12/12 05:05:54;;;;;;;10.95;1.90;;;4.10;99.90;;;;;;4945913;29;20054;-83
2023/12/12 05:08:21;;;;;;;7.00;1.98;;;4.90;99.90;;;;;;4952864;29;20562;-84
2023/12/12 05:10:47;;;;;;;7.00;2.35;;;4.20;99.90;;;;;;4940645;29;20044;-84
2023/12/12 05:13:14;;;;;;;5.07;2.20;;;4.20;99.90;;;;;;4935707;29;20048;-84
2023/12/12 05:15:41;;;;;;;19.20;2.65;;;4.20;99.90;;;;;;4943063;29;20042;-84
2023/12/12 05:18:07;;;;;;;7.93;2.40;;;4.20;99.90;;;;;;4948572;29;20075;-84
2023/12/12 05:20:34;;;;;;;14.90;2.20;;;4.30;99.90;;;;;;4943000;29;20488;-84
2023/12/12 05:23:01;;;;;;;8.02;2.47;;;5.20;99.90;;;;;;4950165;29;20066;-84
2023/12/12 05:25:28;;;;;;;11.23;2.28;;;4.30;99.90;;;;;;4952368;29;20040;-84
2023/12/12 05:27:54;;;;;;;6.70;2.55;;;4.30;99.90;;;;;;4949813;29;20047;-84
2023/12/12 05:30:21;;;;;;;7.28;2.63;;;4.30;99.90;;;;;;4948989;29;20108;-84
2023/12/12 05:32:47;;;;;;;9.80;2.15;;;4.80;99.90;;;;;;4945429;29;20075;-84
2023/12/12 05:35:14;;;;;;;10.20;2.78;;;5.20;99.90;;;;;;4935476;29;20047;-84
2023/12/12 05:37:41;;;;;;;10.32;2.60;;;4.00;99.90;;;;;;4936262;29;20048;-84
2023/12/12 05:40:08;;;;;;;11.25;3.03;;;5.10;99.90;;;;;;4938686;29;20036;-84
2023/12/12 05:42:34;;;;;;;9.38;2.70;;;4.30;99.90;;;;;;4933058;29;20110;-84
2023/12/12 05:45:02;;;;;;;6.88;2.85;;;5.00;99.90;;;;;;4941562;29;20040;-84
2023/12/12 05:47:29;;;;;;;11.27;3.22;;;4.30;99.90;;;;;;4955281;29;20172;-84
2023/12/12 05:49:56;;;;;;;6.05;2.63;;;4.30;99.90;;;;;;4947274;29;20068;-84
2023/12/12 05:52:22;;;;;;;7.72;2.92;;;5.30;99.90;;;;;;4933326;29;20119;-84
2023/12/12 05:54:49;;;;;;;6.78;2.85;;;4.30;99.90;;;;;;4946483;29;20036;-84
2023/12/12 05:57:15;;;;;;;11.95;4.13;;;4.30;99.90;;;;;;4947311;29;20241;-84
2023/12/12 05:59:42;;;;;;;12.52;3.92;;;4.80;99.90;;;;;;4959279;29;20119;-84
2023/12/12 06:02:09;;;;;;;10.93;3.72;;;4.30;99.90;;;;;;4956216;29;20039;-84
2023/12/12 06:04:38;;;;;;;11.60;4.28;;;5.20;99.90;;;;;;4943432;29;20044;-84
2023/12/12 06:07:05;;;;;;;8.55;3.85;;;4.80;99.90;;;;;;4953255;29;20054;-84
2023/12/12 06:09:32;;;;;;;11.80;3.83;;;4.20;99.90;;;;;;4949380;29;20067;-84
2023/12/12 06:12:01;;;;;;;12.88;4.10;;;5.00;99.90;;;;;;4941258;29;20040;-84
2023/12/12 06:14:28;;;;;;;9.40;4.22;;;4.10;99.90;;;;;;4951009;29;20040;-84
2023/12/12 06:16:54;;;;;;;10.50;3.90;;;4.00;99.90;;;;;;4955634;29;20039;-83
2023/12/12 06:19:21;;;;;;;10.93;4.47;;;4.90;99.90;;;;;;4943457;29;20382;-84
2023/12/12 06:21:52;;;;;;;8.60;4.03;;;3.90;99.90;;;;;;4949081;29;20048;-84
2023/12/12 06:24:18;;;;;;;11.38;3.75;;;3.90;99.90;;;;;;4938258;29;20036;-84
2023/12/12 06:26:45;;;;;;;14.18;4.55;;;4.20;99.90;;;;;;4955527;29;20043;-84
2023/12/12 06:29:15;;;;;;;10.20;3.88;;;4.20;99.90;;;;;;4953566;29;20050;-84
2023/12/12 06:31:42;;;;;;;10.05;4.47;;;3.70;99.90;;;;;;4942346;29;20409;-84
2023/12/12 06:34:10;;;;;;;10.75;4.13;;;3.70;99.90;;;;;;4939469;29;20051;-84
2023/12/12 06:36:37;;;;;;;11.05;4.47;;;3.70;99.90;;;;;;4946857;29;20460;-84
2023/12/12 06:39:04;;;;;;;12.68;4.47;;;3.60;99.90;;;;;;4967237;29;20091;-84
2023/12/12 06:41:31;;;;;;;9.65;4.85;;;4.00;99.90;;;;;;4964638;29;20087;-84
2023/12/12 06:43:57;;;;;;;12.43;4.95;;;3.90;99.90;;;;;;4967675;29;20079;-84
2023/12/12 06:46:24;;;;;;;14.20;5.90;;;3.50;99.90;;;;;;4943920;29;20048;-84
2023/12/12 06:48:51;;;;;;;15.07;5.72;;;3.50;99.90;;;;;;4946790;29;20489;-84
2023/12/12 06:51:18;;;;;;;11.18;5.15;;;3.50;99.90;;;;;;4946348;29;20082;-84
2023/12/12 06:53:44;;;;;;;12.25;5.45;;;4.00;99.90;;;;;;4941930;29;20052;-84
2023/12/12 06:56:11;;;;;;;10.18;5.10;;;3.90;99.90;;;;;;4944067;29;20047;-84
2023/12/12 06:58:38;;;;;;;10.45;5.30;;;3.40;99.90;;;;;;4950067;29;20409;-84
2023/12/12 07:01:05;;;;;;;11.70;6.03;;;3.40;99.90;;;;;;4955127;29;20048;-84
2023/12/12 07:03:32;;;;;;;16.92;5.88;;;3.30;99.90;;;;;;4942136;29;20044;-84
2023/12/12 07:05:59;;;;;;;14.73;5.97;;;3.40;99.90;;;;;;4947416;29;20070;-83
2023/12/12 07:08:26;;;;;;;11.23;5.75;;;3.40;99.90;;;;;;4965449;29;20036;-84
2023/12/12 07:10:53;;;;;;;14.10;6.00;;;4.20;99.90;;;;;;4954993;29;20040;-83
2023/12/12 07:13:19;;;;;;;16.85;6.55;;;3.50;99.90;;;;;;4951218;29;20496;-84
2023/12/12 07:15:46;;;;;;;15.40;6.78;;;3.50;99.90;;;;;;4954809;29;20067;-83
2023/12/12 07:18:14;;;;;;;15.55;7.53;;;4.70;99.90;;;;;;4954783;29;20180;-83
2023/12/12 07:20:41;;;;;;;15.00;7.03;;;4.30;99.90;;;;;;4954369;29;20046;-84
2023/12/12 07:23:08;;;;;;;19.65;7.85;;;4.70;99.90;;;;;;4949584;29;20040;-84
2023/12/12 07:25:34;;;;;;;15.82;7.90;;;4.10;99.90;;;;;;4937667;29;20058;-83
2023/12/12 07:28:01;;;;;;;20.30;7.82;;;3.80;99.90;;;;;;4950988;29;20066;-84
2023/12/12 07:30:27;;;;;;;21.52;7.72;;;4.30;99.90;;;;;;4950100;29;20054;-83
2023/12/12 07:32:55;;;;;;;16.45;8.10;;;3.90;99.90;;;;;;4969424;29;20076;-84
2023/12/12 07:35:23;;;;;;;21.13;8.18;;;3.90;99.90;;;;;;4953672;29;20050;-84
2023/12/12 07:37:49;;;;;;;21.88;8.13;;;4.00;99.90;;;;;;4942381;29;20122;-84
2023/12/12 07:40:16;;;;;;;20.83;9.15;;;4.00;99.90;;;;;;4952225;29;20120;-84
2023/12/12 07:42:45;;;;;;;19.02;8.60;;;4.10;99.90;;;;;;4949438;29;20103;-84
2023/12/12 07:45:12;;;;;;;20.30;8.73;;;4.10;99.90;;;;;;4949117;29;20488;-84
2023/12/12 07:47:38;;;;;;;16.55;8.43;;;4.70;99.90;;;;;;4948770;29;20046;-85
2023/12/12 07:50:08;;;;;;;17.17;8.13;;;4.20;99.90;;;;;;4944836;29;20039;-84
2023/12/12 07:52:34;;;;;;;20.38;8.35;;;4.20;99.90;;;;;;4947197;29;20043;-84
2023/12/12 07:55:01;;;;;;;27.17;8.15;;;4.90;99.90;;;;;;4964984;29;20039;-84
2023/12/12 07:57:28;;;;;;;26.48;9.18;;;4.20;99.90;;;;;;4953020;29;20103;-83
2023/12/12 07:59:54;;;;;;;45.75;9.10;;;4.30;99.90;;;;;;4944742;29;20055;-85
2023/12/12 08:02:21;;;;;;;34.13;9.02;;;4.40;99.90;;;;;;4943373;29;20048;-85
2023/12/12 08:04:48;;;;;;;34.65;8.60;;;4.40;99.90;;;;;;4943009;29;20055;-85
2023/12/12 08:07:14;;;;;;;25.08;8.38;;;4.40;99.90;;;;;;4950398;29;20141;-83
2023/12/12 08:09:41;;;;;;;28.52;8.43;;;4.50;99.90;;;;;;4949825;29;20131;-84
2023/12/12 08:12:08;;;;;;;23.95;7.57;;;4.50;99.90;;;;;;4951907;29;20090;-84
2023/12/12 08:14:34;;;;;;;42.40;9.77;;;4.60;99.90;;;;;;4941011;29;20075;-84
2023/12/12 08:17:02;;;;;;;21.65;8.38;;;4.50;99.90;;;;;;4945396;29;20095;-84
2023/12/12 08:19:29;;;;;;;43.55;9.52;;;4.50;99.90;;;;;;4948441;29;20035;-84
2023/12/12 08:21:55;;;;;;;82.13;11.23;;;4.60;99.90;;;;;;4952899;29;20040;-84
2023/12/12 08:24:22;;;;;;;71.82;10.32;;;4.60;99.90;;;;;;4940954;29;20043;-84
2023/12/12 08:26:49;;;;;;;58.83;9.95;;;4.60;99.90;;;;;;4941619;29;20044;-84
2023/12/12 08:29:15;;;;;;;25.65;8.88;;;4.60;99.90;;;;;;4958131;29;20043;-83
2023/12/12 08:31:42;;;;;;;40.33;10.35;;;5.00;99.90;;;;;;4948342;29;20469;-84
2023/12/12 08:34:09;;;;;;;23.15;9.38;;;4.80;99.90;;;;;;4936119;29;20050;-84
2023/12/12 08:36:36;;;;;;;41.90;9.73;;;5.10;99.90;;;;;;4959881;29;20078;-84
2023/12/12 08:39:03;;;;;;;41.40;9.95;;;4.70;99.90;;;;;;4951490;29;20071;-84
2023/12/12 08:41:31;;;;;;;78.05;11.35;;;5.10;99.90;;;;;;4951388;29;20063;-84
2023/12/12 08:43:59;;;;;;;42.38;10.35;;;4.70;99.90;;;;;;4951648;29;20079;-84
2023/12/12 08:46:29;;;;;;;30.38;10.05;;;4.70;99.90;;;;;;4953002;29;20089;-84
2023/12/12 08:48:59;;;;;;;65.93;11.52;;;5.30;99.90;;;;;;4946843;29;20043;-83
2023/12/12 08:51:26;;;;;;;58.78;13.63;;;5.40;99.90;;;;;;4945765;29;20075;-82
2023/12/12 08:53:53;;;;;;;38.60;11.15;;;4.80;99.90;;;;;;4941274;29;20048;-83
2023/12/12 08:56:20;;;;;;;49.78;12.45;;;4.80;99.90;;;;;;4940065;29;20076;-83
2023/12/12 08:58:49;;;;;;;161.25;18.27;;;4.80;99.90;;;;;;4950698;29;20056;-83
2023/12/12 09:01:16;;;;;;;69.95;14.48;;;4.90;99.90;;;;;;4952402;29;20035;-83
2023/12/12 09:03:43;;;;;;;43.75;12.02;;;5.40;99.90;;;;;;4950698;29;20032;-83
2023/12/12 09:06:09;;;;;;;45.85;14.45;;;5.80;99.90;;;;;;4938688;29;20040;-82
2023/12/12 09:08:36;;;;;;;50.60;12.65;;;5.20;99.90;;;;;;4949702;29;20048;-83
2023/12/12 09:11:03;;;;;;;49.75;12.60;;;5.00;99.90;;;;;;4943054;29;20051;-82
2023/12/12 09:13:29;;;;;;;58.40;12.38;;;5.10;99.90;;;;;;4952523;29;20048;-83
2023/12/12 09:15:56;;;;;;;55.08;11.98;;;5.20;99.90;;;;;;4963261;29;20510;-82
2023/12/12 09:18:23;;;;;;;95.75;16.35;;;5.20;99.90;;;;;;4946976;29;20071;-82
2023/12/12 09:20:49;;;;;;;76.38;14.52;;;5.20;99.90;;;;;;4944434;29;20114;-83
2023/12/12 09:23:16;;;;;;;70.00;14.85;;;5.70;99.90;;;;;;4947767;29;20134;-83
2023/12/12 09:25:43;;;;;;;107.15;15.30;;;5.80;99.90;;;;;;4939819;29;20086;-83
2023/12/12 09:28:10;;;;;;;99.03;15.52;;;5.30;99.90;;;;;;4943594;29;20039;-83
2023/12/12 09:30:37;;;;;;;47.20;13.95;;;5.80;99.90;;;;;;4942553;29;20053;-83
2023/12/12 09:33:03;;;;;;;84.20;15.32;;;5.70;99.90;;;;;;4956349;29;20448;-83
2023/12/12 09:35:30;;;;;;;62.80;14.05;;;5.30;99.90;;;;;;4955880;29;20040;-82
2023/12/12 09:37:57;;;;;;;85.72;15.88;;;6.50;99.90;;;;;;4956326;29;20040;-83
2023/12/12 09:40:23;;;;;;;99.38;14.35;;;5.40;99.90;;;;;;4945188;29;20035;-83
2023/12/12 09:42:50;;;;;;;119.95;15.93;;;5.40;99.90;;;;;;4946312;29;20408;-82
2023/12/12 09:45:17;;;;;;;87.68;15.23;;;5.40;99.90;;;;;;4969429;29;20048;-84
2023/12/12 09:47:44;;;;;;;57.33;13.20;;;5.50;99.90;;;;;;4951106;29;20036;-83
2023/12/12 09:50:12;;;;;;;83.22;13.52;;;5.50;99.90;;;;;;4961615;29;20087;-83
2023/12/12 09:52:39;;;;;;;102.25;14.88;;;6.30;99.90;;;;;;4949222;29;20091;-84
2023/12/12 09:55:06;;;;;;;100.35;14.98;;;5.50;99.90;;;;;;4946737;29;21864;-84
2023/12/12 09:57:33;;;;;;;60.55;13.63;;;5.60;99.90;;;;;;4945612;29;20460;-84
2023/12/12 10:00:00;;;;;;;52.88;13.98;;;5.60;99.90;;;;;;4948318;29;20191;-83
2023/12/12 10:02:34;;;;;;;85.80;14.95;;;5.50;99.90;;;;;;4955561;29;20032;-83
2023/12/12 10:05:05;;;;;;;71.97;14.13;;;5.50;99.90;;;;;;4951968;29;20475;-84
2023/12/12 10:07:33;;;;;;;125.47;16.55;;;5.60;99.90;;;;;;4955234;29;20047;-83
2023/12/12 10:10:04;;;;;;;74.47;15.07;;;5.70;99.90;;;;;;4946136;29;20052;-83
2023/12/12 10:12:30;;;;;;;33.72;13.52;;;5.60;99.90;;;;;;4943869;29;20044;-83
2023/12/12 10:14:58;;;;;;;112.50;17.00;;;6.20;99.90;;;;;;4940988;29;20046;-83
2023/12/12 10:17:26;;;;;;;75.15;17.05;;;5.60;99.90;;;;;;4943510;29;20036;-84
2023/12/12 10:20:00;;;;;;;59.58;15.05;;;5.70;99.90;;;;;;4944661;29;20453;-83
2023/12/12 10:22:31;;;;;;;90.03;16.35;;;6.60;99.90;;;;;;4948246;29;20047;-83
2023/12/12 10:25:11;;;;;;;64.18;15.88;;;5.70;99.90;;;;;;4945453;29;20045;-84
2023/12/12 10:27:42;;;;;;;83.88;18.00;;;5.70;99.90;;;;;;4954726;29;20504;-83
2023/12/12 10:30:12;;;;;;;55.95;17.08;;;5.80;99.90;;;;;;4955083;29;20039;-83
2023/12/12 10:32:39;;;;;;;74.72;18.27;;;5.80;99.90;;;;;;4960840;29;20417;-82
2023/12/12 10:35:06;;;;;;;51.30;15.65;;;6.00;99.90;;;;;;4948965;29;20036;-83
2023/12/12 10:37:33;;;;;;;74.20;16.63;;;5.70;99.90;;;;;;4949291;29;20039;-83
2023/12/12 10:40:13;;;;;;;42.35;16.45;;;6.10;99.90;;;;;;4954955;29;20043;-83
2023/12/12 10:42:40;;;;;;;106.88;17.10;;;5.80;99.90;;;;;;4953959;29;20126;-83
2023/12/12 10:45:11;;;;;;;88.32;15.60;;;5.80;99.90;;;;;;4954515;29;20099;-82
2023/12/12 10:47:49;;;;;;;61.25;16.08;;;6.40;99.90;;;;;;4947431;29;20040;-83
2023/12/12 10:50:18;;;;;;;96.80;16.83;;;6.10;99.90;;;;;;4936004;29;20040;-83
2023/12/12 10:52:46;;;;;;;130.40;18.50;;;6.00;99.90;;;;;;4942675;29;20051;-84
2023/12/12 10:55:14;;;;;;;104.68;16.40;;;6.60;99.90;;;;;;4951850;29;20036;-83
2023/12/12 10:57:47;;;;;;;79.35;16.10;;;6.40;99.90;;;;;;4952866;29;20051;-83
2023/12/12 11:00:15;;;;;;;56.78;15.52;;;6.50;99.90;;;;;;4958953;29;20056;-83
2023/12/12 11:02:43;;;;;;;110.10;15.45;;;5.70;99.90;;;;;;4950034;29;20086;-83
2023/12/12 11:05:14;;;;;;;86.05;14.80;;;5.70;99.90;;;;;;4948316;29;20050;-83
2023/12/12 11:07:46;;;;;;;104.68;14.95;;;5.60;99.90;;;;;;4955051;29;20046;-84
2023/12/12 11:10:15;;;;;;;111.60;16.13;;;5.60;99.90;;;;;;4954544;29;20056;-83
2023/12/12 11:12:55;;;;;;;47.42;13.85;;;5.60;99.90;;;;;;4949738;29;20412;-83
2023/12/12 11:15:24;;;;;;;42.08;13.68;;;5.60;99.90;;;;;;4944769;29;20040;-82
2023/12/12 11:17:52;;;;;;;80.72;14.73;;;5.90;99.90;;;;;;4959467;29;20139;-83
2023/12/12 11:20:19;;;;;;;38.17;15.23;;;5.60;99.90;;;;;;4950978;29;20405;-83
2023/12/12 11:22:50;;;;;;;46.30;14.93;;;5.60;99.90;;;;;;4949104;29;20039;-83
2023/12/12 11:25:21;;;;;;;59.28;14.05;;;5.60;99.90;;;;;;4951695;29;20048;-83
2023/12/12 11:27:52;;;;;;;38.38;13.90;;;5.70;99.90;;;;;;4968571;29;20864;-83
2023/12/12 11:30:20;;;;;;;61.33;13.60;;;5.70;99.90;;;;;;4945124;29;20114;-83
2023/12/12 11:32:47;;;;;;;43.40;13.57;;;6.10;99.90;;;;;;4943008;29;20048;-83
2023/12/12 11:35:32;;;;;;;50.75;14.38;;;6.60;99.90;;;;;;4947274;29;20040;-83
2023/12/12 11:38:04;;;;;;;61.13;14.02;;;5.70;99.90;;;;;;4953576;29;20047;-83
2023/12/12 11:40:33;;;;;;;80.43;15.35;;;6.90;99.90;;;;;;4949660;29;20039;-83
2023/12/12 11:43:20;;;;;;;44.83;13.55;;;6.20;99.90;;;;;;4944991;29;20048;-83
2023/12/12 11:45:47;;;;;;;32.58;14.07;;;5.70;99.90;;;;;;4946571;29;20050;-83
2023/12/12 11:48:15;;;;;;;41.63;12.60;;;6.70;99.90;;;;;;4947000;29;20127;-82
2023/12/12 11:50:41;;;;;;;44.50;12.55;;;5.80;99.90;;;;;;4958991;29;20055;-83
2023/12/12 11:53:08;;;;;;;31.45;12.32;;;6.80;99.90;;;;;;4945675;29;20039;-83
2023/12/12 11:55:42;;;;;;;40.67;14.10;;;5.70;99.90;;;;;;4948313;29;20043;-83
2023/12/12 11:58:09;;;;;;;33.83;12.30;;;6.00;99.90;;;;;;4957148;29;20055;-83
2023/12/12 12:00:37;;;;;;;32.58;14.90;;;6.00;99.90;;;;;;4938540;29;20044;-83
2023/12/12 12:03:08;;;;;;;31.92;12.95;;;5.80;99.90;;;;;;4929470;29;20460;-82
2023/12/12 12:05:35;;;;;;;42.45;14.25;;;7.00;99.90;;;;;;4935102;29;20050;-82
2023/12/12 12:08:02;;;;;;;30.73;13.13;;;5.80;99.90;;;;;;4937291;29;20540;-82
2023/12/12 12:10:29;;;;;;;39.00;16.52;;;5.90;99.90;;;;;;4934415;29;20040;-82
2023/12/12 12:12:59;;;;;;;43.53;15.93;;;5.80;99.90;;;;;;4924235;29;20127;-82
2023/12/12 12:15:26;;;;;;;53.60;16.98;;;6.10;99.90;;;;;;4943509;29;20042;-82
2023/12/12 12:17:53;;;;;;;39.88;14.93;;;6.30;99.90;;;;;;4943979;29;20059;-82
2023/12/12 12:20:20;;;;;;;36.10;16.52;;;6.10;99.90;;;;;;4942547;29;20064;-82
2023/12/12 12:22:46;;;;;;;34.53;15.57;;;6.40;99.90;;;;;;4930552;29;20051;-82
2023/12/12 12:25:20;;;;;;;44.25;21.27;;;5.90;99.90;;;;;;4925068;29;20524;-81
2023/12/12 12:27:52;;;;;;;38.90;16.95;;;6.40;99.90;;;;;;4930815;29;20119;-81
2023/12/12 12:30:19;;;;;;;35.22;16.58;;;5.90;99.90;;;;;;4924665;29;20412;-81
2023/12/12 12:33:04;;;;;;;43.28;19.35;;;6.70;99.90;;;;;;4944638;29;20103;-81
2023/12/12 12:35:31;;;;;;;44.05;19.92;;;6.40;99.90;;;;;;4937481;29;20055;-81
2023/12/12 12:37:58;;;;;;;34.80;16.20;;;5.90;99.90;;;;;;4928843;29;20039;-81
2023/12/12 12:40:33;;;;;;;36.95;16.80;;;6.00;99.90;;;;;;4933376;29;20036;-82
2023/12/12 12:43:01;;;;;;;33.88;16.85;;;6.00;99.90;;;;;;4924044;29;20115;-81
2023/12/12 12:45:28;;;;;;;36.97;16.80;;;6.30;99.90;;;;;;4930316;29;20036;-81
2023/12/12 12:47:55;;;;;;;33.97;15.85;;;6.80;99.90;;;;;;4927985;29;20066;-82